Terminal Aerodrome Forecast
Issued by NWS El Paso, TX

Home | Current Version | Previous Version | Text Only | Print | Product List | Glossary On
Versions: 1 2 3 4 5 6 7 8 9 10 11 12 13 14 15 16 17
000
FTUS44 KEPZ 231700
TAFELP
TAF
KELP 231720Z 2318/2418 11013KT P6SM SCT080 SCT250
     FM240300 10009KT P6SM FEW100 SCT200
     FM241000 04006KT P6SM FEW200=

USA.gov is the U.S. government's official web portal to all federal, state and local government web resources and services.